createdAt,value
2022-12-15T00:02:15.430Z,100292.31
2022-12-15T00:05:00.677Z,100310.22
2022-12-15T00:07:45.801Z,100300.31
2022-12-15T00:10:30.884Z,100304.91
2022-12-15T00:13:15.909Z,100292.59
2022-12-15T00:16:01.523Z,100300.72
2022-12-15T00:18:46.812Z,100310.13
2022-12-15T00:21:32.082Z,100311.84
2022-12-15T00:24:17.170Z,100299.22
2022-12-15T00:27:02.514Z,100296.75
2022-12-15T00:29:47.749Z,100304.03
2022-12-15T00:32:32.890Z,100292.31
2022-12-15T00:35:18.405Z,100278.94
2022-12-15T00:38:05.241Z,100282.59
2022-12-15T00:40:32.008Z,100274.38
2022-12-15T00:42:58.637Z,100283.22
2022-12-15T00:45:45.275Z,100279.72
2022-12-15T00:48:11.919Z,100280.69
2022-12-15T00:50:53.739Z,100286.78
2022-12-15T00:53:42.793Z,100294.97
2022-12-15T00:56:28.960Z,100291.41
2022-12-15T00:59:14.727Z,100287.84
2022-12-15T01:01:59.892Z,100293.31
2022-12-15T01:04:45.897Z,100297.66
2022-12-15T01:07:32.255Z,100300.34
2022-12-15T01:10:17.292Z,100275.41
2022-12-15T01:13:03.064Z,100282.44
2022-12-15T01:15:48.217Z,100282.97
2022-12-15T01:18:33.545Z,100275.34
2022-12-15T01:21:02.822Z,100281.84
2022-12-15T01:23:31.466Z,100280.09
2022-12-15T01:25:58.504Z,100272.16
2022-12-15T01:28:25.361Z,100267.47
2022-12-15T01:30:52.393Z,100258.59
2022-12-15T01:33:19.895Z,100256.66
2022-12-15T01:36:03.630Z,100264.72
2022-12-15T01:38:30.400Z,100252.59
2022-12-15T01:41:10.039Z,100251.75
2022-12-15T01:43:39.422Z,100254.28
2022-12-15T01:46:16.084Z,100256.94
2022-12-15T01:48:47.403Z,100262.09
2022-12-15T01:51:40.271Z,100254.09
2022-12-15T01:54:11.929Z,100266.56
2022-12-15T01:56:43.231Z,100259.38
2022-12-15T01:59:15.166Z,100258.47
2022-12-15T02:01:42.013Z,100268.47
2022-12-15T02:04:08.936Z,100263.38
2022-12-15T02:06:36.426Z,100268.84
2022-12-15T02:09:04.329Z,100269.63
2022-12-15T02:12:02.958Z,100272.59
2022-12-15T02:14:37.786Z,100277.44
2022-12-15T02:17:22.238Z,100280.06
2022-12-15T02:19:54.855Z,100271.28
2022-12-15T02:22:31.966Z,100268.41
2022-12-15T02:25:34.914Z,100277.34
2022-12-15T02:28:06.491Z,100273.88
2022-12-15T02:31:10.068Z,100271.13
2022-12-15T02:33:44.863Z,100267.28
2022-12-15T02:36:23.703Z,100271.63
2022-12-15T02:38:50.423Z,100247.13
2022-12-15T02:41:37.485Z,100247.88
2022-12-15T02:44:19.680Z,100245.75
2022-12-15T02:47:14.070Z,100235.69
2022-12-15T02:49:49.776Z,100237.38
2022-12-15T02:52:31.273Z,100234.38
2022-12-15T02:55:03.783Z,100241.56
2022-12-15T02:57:52.319Z,100235.13
2022-12-15T03:00:20.009Z,100246.66
2022-12-15T03:02:52.905Z,100242.25
2022-12-15T03:05:21.594Z,100231.41
2022-12-15T03:07:53.404Z,100249.06
2022-12-15T03:10:23.636Z,100239.44
2022-12-15T03:12:50.727Z,100234.06
2022-12-15T03:15:18.426Z,100244.88
2022-12-15T03:17:45.140Z,100238.91
2022-12-15T03:20:12.135Z,100236.41
2022-12-15T03:22:39.815Z,100234.66
2022-12-15T03:25:06.763Z,100232.91
2022-12-15T03:27:33.499Z,100233.03
2022-12-15T03:30:00.180Z,100229.63
2022-12-15T03:32:26.886Z,100225.56
2022-12-15T03:34:53.574Z,100226.78
2022-12-15T03:37:20.220Z,100227.75
2022-12-15T03:39:47.850Z,100213.66
2022-12-15T03:42:14.482Z,100210.25
2022-12-15T03:44:41.169Z,100196.28
2022-12-15T03:47:07.835Z,100207.91
2022-12-15T03:49:34.513Z,100216.09
2022-12-15T03:52:01.216Z,100225.19
2022-12-15T03:54:27.906Z,100225.25
2022-12-15T03:56:54.593Z,100223.34
2022-12-15T03:59:21.229Z,100221.66
2022-12-15T04:01:49.251Z,100220.94
2022-12-15T04:04:16.302Z,100227.03
2022-12-15T04:06:42.991Z,100219.13
2022-12-15T04:09:09.690Z,100213.00
2022-12-15T04:11:36.437Z,100210.44
2022-12-15T04:14:03.102Z,100200.56
2022-12-15T04:16:29.880Z,100200.56
2022-12-15T04:19:15.092Z,100205.19
2022-12-15T04:21:41.760Z,100191.84
2022-12-15T04:24:27.185Z,100194.53
2022-12-15T04:27:12.193Z,100183.63
2022-12-15T04:29:57.288Z,100189.94
2022-12-15T04:32:42.365Z,100179.16
2022-12-15T04:35:29.595Z,100173.84
2022-12-15T04:38:14.852Z,100179.03
2022-12-15T04:41:00.082Z,100164.97
2022-12-15T04:43:45.294Z,100166.63
2022-12-15T04:46:30.494Z,100168.66
2022-12-15T04:49:15.683Z,100170.38
2022-12-15T04:52:00.877Z,100166.13
2022-12-15T04:54:46.139Z,100176.97
2022-12-15T04:57:31.559Z,100186.41
2022-12-15T05:00:16.629Z,100188.31
2022-12-15T05:03:01.979Z,100195.34
2022-12-15T05:05:47.211Z,100196.44
2022-12-15T05:08:32.461Z,100195.38
2022-12-15T05:11:18.670Z,100199.97
2022-12-15T05:14:03.869Z,100191.91
2022-12-15T05:16:49.177Z,100188.41
2022-12-15T05:19:34.619Z,100186.63
2022-12-15T05:22:19.829Z,100194.72
2022-12-15T05:25:05.044Z,100191.50
2022-12-15T05:27:50.275Z,100201.41
2022-12-15T05:30:38.083Z,100205.00
2022-12-15T05:33:05.901Z,100205.03
2022-12-15T05:35:32.608Z,100203.09
2022-12-15T05:38:00.535Z,100204.81
2022-12-15T05:40:27.243Z,100204.00
2022-12-15T05:42:53.876Z,100197.78
2022-12-15T05:45:21.200Z,100202.34
2022-12-15T05:47:51.819Z,100205.72
2022-12-15T05:50:18.850Z,100208.38
2022-12-15T05:52:49.380Z,100207.41
2022-12-15T05:55:17.384Z,100210.13
2022-12-15T05:57:44.077Z,100207.63
2022-12-15T06:00:11.232Z,100207.69
2022-12-15T06:02:38.027Z,100204.72
2022-12-15T06:05:05.157Z,100199.44
2022-12-15T06:07:31.852Z,100206.69
2022-12-15T06:09:58.826Z,100208.31
2022-12-15T06:15:15.088Z,100206.53
2022-12-15T06:17:41.749Z,100209.97
2022-12-15T06:20:08.729Z,100213.44
2022-12-15T06:22:35.438Z,100208.19
2022-12-15T06:25:02.136Z,100202.09
2022-12-15T06:27:28.896Z,100204.78
2022-12-15T06:29:55.575Z,100202.19
2022-12-15T06:32:22.279Z,100202.06
2022-12-15T06:34:49.615Z,100205.78
2022-12-15T06:37:16.278Z,100216.53
2022-12-15T06:39:42.961Z,100219.31
2022-12-15T06:42:09.697Z,100223.63
2022-12-15T06:44:36.371Z,100219.06
2022-12-15T06:47:03.888Z,100211.97
2022-12-15T06:49:31.972Z,100220.84
2022-12-15T06:51:58.687Z,100212.03
2022-12-15T06:54:25.376Z,100211.00
2022-12-15T06:56:52.251Z,100210.13
2022-12-15T06:59:18.912Z,100201.22
2022-12-15T07:01:45.735Z,100203.75
2022-12-15T07:04:12.851Z,100218.72
2022-12-15T07:06:40.274Z,100212.31
2022-12-15T07:09:11.782Z,100223.22
2022-12-15T07:11:38.473Z,100228.63
2022-12-15T07:14:05.215Z,100238.50
2022-12-15T07:16:32.338Z,100234.91
2022-12-15T07:18:59.177Z,100234.84
2022-12-15T07:21:25.893Z,100243.63
2022-12-15T07:23:55.728Z,100240.91
2022-12-15T07:26:23.750Z,100239.00
2022-12-15T07:28:50.629Z,100240.50
2022-12-15T07:31:17.966Z,100252.59
2022-12-15T07:33:44.966Z,100244.44
2022-12-15T07:36:11.949Z,100241.53
2022-12-15T07:38:38.716Z,100236.97
2022-12-15T07:41:07.981Z,100232.44
2022-12-15T07:43:35.762Z,100229.34
2022-12-15T07:46:03.874Z,100231.16
2022-12-15T07:48:30.803Z,100229.34
2022-12-15T07:51:05.176Z,100234.63
2022-12-15T07:53:36.265Z,100243.41
2022-12-15T07:56:07.905Z,100243.22
2022-12-15T07:58:35.599Z,100239.66
2022-12-15T08:01:04.407Z,100238.59
2022-12-15T08:03:31.774Z,100242.03
2022-12-15T08:06:03.776Z,100247.13
2022-12-15T08:08:31.987Z,100253.91
2022-12-15T08:10:59.151Z,100256.63
2022-12-15T08:14:00.938Z,100244.28
2022-12-15T08:16:18.238Z,100240.59
2022-12-15T08:18:48.951Z,100243.69
2022-12-15T08:21:15.746Z,100243.97
2022-12-15T08:23:42.494Z,100250.19
2022-12-15T08:26:13.002Z,100256.25
2022-12-15T08:28:41.031Z,100254.31
2022-12-15T08:31:10.545Z,100261.41
2022-12-15T08:33:38.082Z,100268.22
2022-12-15T08:36:07.983Z,100263.41
2022-12-15T08:38:36.079Z,100264.19
2022-12-15T08:41:23.770Z,100272.06
2022-12-15T08:43:51.339Z,100256.78
2022-12-15T08:46:21.159Z,100258.97
2022-12-15T08:48:48.574Z,100259.03
2022-12-15T08:51:16.243Z,100257.09
2022-12-15T08:53:43.276Z,100256.81
2022-12-15T08:56:13.534Z,100255.66
2022-12-15T08:58:40.522Z,100255.75
2022-12-15T09:01:15.948Z,100267.00
2022-12-15T09:03:45.666Z,100265.28
2022-12-15T09:06:23.307Z,100265.94
2022-12-15T09:08:50.717Z,100265.00
2022-12-15T09:11:17.858Z,100262.34
2022-12-15T09:13:44.659Z,100264.94
2022-12-15T09:16:14.707Z,100262.13
2022-12-15T09:18:47.796Z,100262.09
2022-12-15T09:21:16.109Z,100259.81
2022-12-15T09:23:43.311Z,100262.56
2022-12-15T09:26:12.552Z,100259.06
2022-12-15T09:28:40.011Z,100253.59
2022-12-15T09:31:15.737Z,100246.00
2022-12-15T09:33:43.916Z,100244.16
2022-12-15T09:36:13.220Z,100248.56
2022-12-15T09:38:41.706Z,100245.81
2022-12-15T09:41:13.292Z,100239.94
2022-12-15T09:44:02.996Z,100238.88
2022-12-15T09:47:00.810Z,100242.34
2022-12-15T09:49:45.756Z,100246.66
2022-12-15T09:52:19.318Z,100258.97
2022-12-15T09:54:46.587Z,100250.66
2022-12-15T09:57:19.350Z,100245.00
2022-12-15T10:00:25.836Z,100239.56
2022-12-15T10:03:02.968Z,100246.53
2022-12-15T10:06:14.767Z,100249.00
2022-12-15T10:08:44.769Z,100241.53
2022-12-15T10:11:18.828Z,100235.44
2022-12-15T10:14:16.241Z,100237.06
2022-12-15T10:17:11.665Z,100240.94
2022-12-15T10:20:20.803Z,100229.34
2022-12-15T10:22:50.353Z,100234.47
2022-12-15T10:25:31.791Z,100229.66
2022-12-15T10:28:37.182Z,100233.63
2022-12-15T10:31:18.224Z,100228.31
2022-12-15T10:33:51.688Z,100220.41
2022-12-15T10:36:18.297Z,100220.78
2022-12-15T10:38:50.578Z,100213.63
2022-12-15T10:41:23.752Z,100206.59
2022-12-15T10:43:52.095Z,100202.78
2022-12-15T10:46:29.692Z,100202.59
2022-12-15T10:48:59.449Z,100205.91
2022-12-15T10:51:31.657Z,100201.50
2022-12-15T10:54:10.680Z,100208.38
2022-12-15T10:57:14.516Z,100214.00
2022-12-15T10:59:41.242Z,100220.44
2022-12-15T11:02:34.025Z,100226.59
2022-12-15T11:05:15.886Z,100238.84
2022-12-15T11:07:52.241Z,100232.31
2022-12-15T11:10:48.799Z,100241.75
2022-12-15T11:13:21.797Z,100240.69
2022-12-15T11:15:56.654Z,100239.53
2022-12-15T11:18:29.323Z,100240.13
2022-12-15T11:21:13.471Z,100237.63
2022-12-15T11:24:04.636Z,100232.03
2022-12-15T11:26:37.173Z,100234.78
2022-12-15T11:29:16.604Z,100230.75
2022-12-15T11:31:45.345Z,100240.88
2022-12-15T11:34:18.478Z,100242.25
2022-12-15T11:37:00.313Z,100245.78
2022-12-15T11:40:11.274Z,100242.19
2022-12-15T11:42:53.276Z,100251.78
2022-12-15T11:45:27.265Z,100261.00
2022-12-15T11:48:01.808Z,100251.34
2022-12-15T11:50:37.426Z,100255.16
2022-12-15T11:53:15.055Z,100261.28
2022-12-15T11:55:50.062Z,100259.81
2022-12-15T11:58:36.055Z,100263.25
2022-12-15T12:01:21.358Z,100272.31
2022-12-15T12:04:19.484Z,100262.97
2022-12-15T12:06:58.587Z,100264.38
2022-12-15T12:09:34.116Z,100268.53
2022-12-15T12:12:30.396Z,100261.06
2022-12-15T12:15:15.804Z,100259.28
2022-12-15T12:17:48.851Z,100270.81
2022-12-15T12:20:34.953Z,100261.56
2022-12-15T12:23:22.331Z,100269.59
2022-12-15T12:26:11.309Z,100266.50
2022-12-15T12:29:02.672Z,100274.56
2022-12-15T12:31:41.334Z,100268.88
2022-12-15T12:34:21.667Z,100276.03
2022-12-15T12:36:50.747Z,100275.38
2022-12-15T12:39:24.803Z,100271.88
2022-12-15T12:42:03.919Z,100279.28
2022-12-15T12:44:38.470Z,100283.00
2022-12-15T12:47:26.237Z,100283.72
2022-12-15T12:49:58.471Z,100282.09
2022-12-15T12:52:30.187Z,100277.88
2022-12-15T12:55:02.039Z,100274.56
2022-12-15T12:57:28.614Z,100278.19
2022-12-15T13:00:06.382Z,100277.34
2022-12-15T13:02:38.049Z,100274.09
2022-12-15T13:05:25.055Z,100285.66
2022-12-15T13:08:05.105Z,100278.88
2022-12-15T13:10:36.729Z,100284.50
2022-12-15T13:13:18.563Z,100278.28
2022-12-15T13:15:51.026Z,100283.69
2022-12-15T13:18:19.857Z,100283.50
2022-12-15T13:20:48.855Z,100279.28
2022-12-15T13:23:23.642Z,100273.88
2022-12-15T13:25:56.815Z,100269.44
2022-12-15T13:28:39.208Z,100264.00
2022-12-15T13:31:21.322Z,100269.78
2022-12-15T13:33:59.473Z,100274.06
2022-12-15T13:36:41.166Z,100270.69
2022-12-15T13:39:16.895Z,100258.44
2022-12-15T13:42:15.391Z,100261.13
2022-12-15T13:44:54.470Z,100268.19
2022-12-15T13:47:26.288Z,100263.91
2022-12-15T13:50:08.555Z,100265.53
2022-12-15T13:55:40.105Z,100273.38
2022-12-15T13:58:14.786Z,100266.00
2022-12-15T14:00:50.877Z,100270.59
2022-12-15T14:03:17.776Z,100267.75
2022-12-15T14:05:59.241Z,100270.59
2022-12-15T14:08:30.310Z,100269.81
2022-12-15T14:11:16.701Z,100266.56
2022-12-15T14:13:54.167Z,100264.59
2022-12-15T14:16:22.676Z,100271.88
2022-12-15T14:19:16.247Z,100274.50
2022-12-15T14:22:00.462Z,100264.03
2022-12-15T14:24:40.841Z,100265.03
2022-12-15T14:27:08.472Z,100273.16
2022-12-15T14:29:35.189Z,100263.31
2022-12-15T14:32:02.346Z,100258.50
2022-12-15T14:34:36.887Z,100266.56
2022-12-15T14:37:08.901Z,100263.94
2022-12-15T14:39:41.052Z,100262.31
2022-12-15T14:42:12.526Z,100267.63
2022-12-15T14:44:48.064Z,100258.72
2022-12-15T14:47:29.204Z,100265.91
2022-12-15T14:49:58.512Z,100264.47
2022-12-15T14:52:27.507Z,100260.44
2022-12-15T14:54:59.784Z,100259.72
2022-12-15T14:57:37.788Z,100263.88
2022-12-15T15:00:35.584Z,100258.09
2022-12-15T15:03:19.144Z,100260.91
2022-12-15T15:05:59.992Z,100261.56
2022-12-15T15:08:33.346Z,100260.84
2022-12-15T15:11:26.847Z,100266.22
2022-12-15T15:14:03.889Z,100253.91
2022-12-15T15:16:31.152Z,100252.56
2022-12-15T15:19:01.718Z,100249.09
2022-12-15T15:21:30.577Z,100252.47
2022-12-15T15:24:01.784Z,100245.69
2022-12-15T15:26:29.825Z,100247.31
2022-12-15T15:28:57.176Z,100246.50
2022-12-15T15:31:41.512Z,100250.94
2022-12-15T15:34:08.933Z,100247.91
2022-12-15T15:36:38.703Z,100245.47
2022-12-15T15:39:13.614Z,100242.91
2022-12-15T15:41:40.330Z,100243.84
2022-12-15T15:44:14.830Z,100226.09
2022-12-15T15:46:52.431Z,100222.41
2022-12-15T15:49:21.661Z,100227.03
2022-12-15T15:51:49.005Z,100221.25
2022-12-15T15:54:19.364Z,100234.09
2022-12-15T15:56:46.186Z,100231.75
2022-12-15T15:59:15.229Z,100220.53
2022-12-15T16:01:43.508Z,100231.03
2022-12-15T16:04:10.368Z,100192.34
2022-12-15T16:06:39.733Z,100196.06
2022-12-15T16:09:14.703Z,100177.31
2022-12-15T16:11:41.561Z,100176.47
2022-12-15T16:14:15.968Z,100177.00
2022-12-15T16:16:43.170Z,100174.88
2022-12-15T16:19:12.003Z,100160.63
2022-12-15T16:21:40.380Z,100158.84
2022-12-15T16:24:15.741Z,100152.59
2022-12-15T16:26:47.809Z,100157.03
2022-12-15T16:29:16.622Z,100160.59
2022-12-15T16:31:46.722Z,100165.28
2022-12-15T16:34:16.565Z,100159.88
2022-12-15T16:36:43.951Z,100156.13
2022-12-15T16:39:33.105Z,100153.44
2022-12-15T16:42:00.309Z,100149.81
2022-12-15T16:44:29.267Z,100151.78
2022-12-15T16:46:57.131Z,100154.50
2022-12-15T16:49:24.096Z,100155.53
2022-12-15T16:51:54.865Z,100155.31
2022-12-15T16:54:28.401Z,100157.16
2022-12-15T16:56:57.137Z,100161.53
2022-12-15T16:59:34.863Z,100157.16
2022-12-15T17:02:17.169Z,100160.34
2022-12-15T17:04:44.073Z,100155.16
2022-12-15T17:07:19.802Z,100145.97
2022-12-15T17:09:47.520Z,100129.38
2022-12-15T17:12:17.542Z,100144.97
2022-12-15T17:14:45.054Z,100140.81
2022-12-15T17:17:16.471Z,100139.88
2022-12-15T17:19:57.810Z,100129.06
2022-12-15T17:22:26.874Z,100127.25
2022-12-15T17:24:53.580Z,100126.38
2022-12-15T17:27:28.084Z,100130.84
2022-12-15T17:30:00.559Z,100127.00
2022-12-15T17:32:27.285Z,100137.97
2022-12-15T17:34:53.969Z,100147.06
2022-12-15T17:37:20.848Z,100131.25
2022-12-15T17:39:51.402Z,100127.75
2022-12-15T17:42:22.103Z,100128.13
2022-12-15T17:44:49.420Z,100130.13
2022-12-15T17:47:20.038Z,100127.31
2022-12-15T17:49:47.385Z,100126.38
2022-12-15T17:52:20.319Z,100131.97
2022-12-15T17:54:47.145Z,100131.59
2022-12-15T17:57:13.834Z,100138.69
2022-12-15T17:59:40.738Z,100143.28
2022-12-15T18:02:12.067Z,100128.59
2022-12-15T18:04:39.154Z,100138.56
2022-12-15T18:07:06.467Z,100138.69
2022-12-15T18:09:33.156Z,100143.00
2022-12-15T18:11:59.873Z,100131.72
2022-12-15T18:14:27.383Z,100135.19
2022-12-15T18:16:54.019Z,100133.22
2022-12-15T18:19:20.695Z,100132.72
2022-12-15T18:21:47.469Z,100122.34
2022-12-15T18:24:17.104Z,100125.16
2022-12-15T18:26:44.290Z,100124.66
2022-12-15T18:29:17.948Z,100122.50
2022-12-15T18:31:47.075Z,100129.81
2022-12-15T18:34:17.528Z,100128.66
2022-12-15T18:36:44.949Z,100130.38
2022-12-15T18:39:18.847Z,100134.78
2022-12-15T18:41:46.156Z,100133.13
2022-12-15T18:44:22.899Z,100136.59
2022-12-15T18:46:49.743Z,100130.91
2022-12-15T18:49:17.792Z,100125.69
2022-12-15T18:51:46.336Z,100116.72
2022-12-15T18:54:24.078Z,100135.09
2022-12-15T18:56:51.683Z,100126.66
2022-12-15T18:59:19.633Z,100129.13
2022-12-15T19:01:48.125Z,100134.94
2022-12-15T19:04:15.148Z,100137.63
2022-12-15T19:06:42.434Z,100129.09
2022-12-15T19:09:17.322Z,100126.28
2022-12-15T19:12:15.803Z,100123.66
2022-12-15T19:14:42.899Z,100122.81
2022-12-15T19:17:42.173Z,100132.94
2022-12-15T19:20:36.526Z,100144.00
2022-12-15T19:23:04.277Z,100132.81
2022-12-15T19:25:32.191Z,100143.78
2022-12-15T19:27:59.937Z,100145.34
2022-12-15T19:30:29.664Z,100133.06
2022-12-15T19:32:57.470Z,100140.31
2022-12-15T19:35:25.198Z,100144.09
2022-12-15T19:37:55.255Z,100145.78
2022-12-15T19:40:27.539Z,100153.09
2022-12-15T19:42:55.332Z,100154.59
2022-12-15T19:45:28.231Z,100162.16
2022-12-15T19:47:55.532Z,100158.97
2022-12-15T19:50:25.366Z,100159.50
2022-12-15T19:53:01.229Z,100169.53
2022-12-15T19:55:33.653Z,100165.34
2022-12-15T19:58:06.432Z,100164.97
2022-12-15T20:00:33.096Z,100163.09
2022-12-15T20:03:02.040Z,100165.09
2022-12-15T20:05:29.351Z,100161.34
2022-12-15T20:07:56.180Z,100159.41
2022-12-15T20:10:31.694Z,100159.28
2022-12-15T20:13:00.569Z,100153.09
2022-12-15T20:15:27.801Z,100154.19
2022-12-15T20:17:58.120Z,100156.88
2022-12-15T20:20:27.958Z,100161.41
2022-12-15T20:22:58.961Z,100154.41
2022-12-15T20:25:29.517Z,100157.06
2022-12-15T20:27:57.348Z,100154.97
2022-12-15T20:30:35.494Z,100150.06
2022-12-15T20:33:03.965Z,100147.59
2022-12-15T20:35:33.288Z,100151.19
2022-12-15T20:38:02.596Z,100157.06
2022-12-15T20:40:30.710Z,100154.41
2022-12-15T20:42:57.624Z,100154.41
2022-12-15T20:45:26.674Z,100152.66
2022-12-15T20:47:55.962Z,100142.59
2022-12-15T20:50:25.390Z,100149.88
2022-12-15T20:52:52.714Z,100143.53
2022-12-15T20:55:21.720Z,100136.16
2022-12-15T20:57:49.067Z,100136.72
2022-12-15T21:00:18.054Z,100130.31
2022-12-15T21:02:46.354Z,100126.19
2022-12-15T21:05:22.567Z,100124.84
2022-12-15T21:07:49.718Z,100141.38
2022-12-15T21:10:18.221Z,100149.00
2022-12-15T21:12:46.721Z,100152.66
2022-12-15T21:15:31.372Z,100151.50
2022-12-15T21:18:25.924Z,100152.59
2022-12-15T21:20:49.720Z,100140.47
2022-12-15T21:23:27.409Z,100137.06
2022-12-15T21:25:57.789Z,100142.31
2022-12-15T21:28:25.118Z,100145.66
2022-12-15T21:30:52.312Z,100151.03
2022-12-15T21:33:19.092Z,100150.06
2022-12-15T21:35:47.558Z,100150.19
2022-12-15T21:38:30.052Z,100137.88
2022-12-15T21:43:43.643Z,100132.59
2022-12-15T21:46:27.579Z,100133.72
2022-12-15T21:49:14.307Z,100146.56
2022-12-15T21:51:55.408Z,100147.81
2022-12-15T21:54:31.014Z,100160.78
2022-12-15T21:56:59.028Z,100149.22
2022-12-15T21:59:29.266Z,100153.91
2022-12-15T22:01:56.437Z,100155.97
2022-12-15T22:04:28.800Z,100166.88
2022-12-15T22:06:55.576Z,100163.53
2022-12-15T22:09:22.313Z,100172.50
2022-12-15T22:11:51.427Z,100172.50
2022-12-15T22:14:28.478Z,100176.25
2022-12-15T22:16:55.817Z,100175.69
2022-12-15T22:19:23.442Z,100181.78
2022-12-15T22:21:50.673Z,100174.06
2022-12-15T22:24:20.924Z,100176.63
2022-12-15T22:26:47.885Z,100181.22
2022-12-15T22:29:21.168Z,100175.00
2022-12-15T22:31:49.624Z,100173.22
2022-12-15T22:34:19.097Z,100169.13
2022-12-15T22:36:45.883Z,100167.50
2022-12-15T22:39:14.729Z,100165.13
2022-12-15T22:41:43.816Z,100168.22
2022-12-15T22:44:26.077Z,100169.97
2022-12-15T22:46:55.421Z,100155.81
2022-12-15T22:49:27.591Z,100163.28
2022-12-15T22:51:55.088Z,100162.63
2022-12-15T22:54:26.883Z,100151.25
2022-12-15T22:57:05.408Z,100158.34
2022-12-15T22:59:41.315Z,100156.63
2022-12-15T23:02:09.263Z,100148.19
2022-12-15T23:04:36.504Z,100143.72
2022-12-15T23:07:07.536Z,100141.78
2022-12-15T23:09:34.189Z,100151.88
2022-12-15T23:12:00.945Z,100139.06
2022-12-15T23:14:46.627Z,100140.59
2022-12-15T23:17:14.227Z,100145.38
2022-12-15T23:19:47.460Z,100131.75
2022-12-15T23:22:14.182Z,100123.38
2022-12-15T23:24:40.964Z,100120.41
2022-12-15T23:27:11.725Z,100130.47
2022-12-15T23:29:38.491Z,100130.03
2022-12-15T23:32:05.339Z,100133.47
2022-12-15T23:34:32.051Z,100141.63
2022-12-15T23:36:58.661Z,100161.56
2022-12-15T23:39:25.764Z,100178.91
2022-12-15T23:41:52.408Z,100177.16
2022-12-15T23:44:19.021Z,100186.91
2022-12-15T23:46:46.842Z,100192.22
2022-12-15T23:49:13.776Z,100195.31
2022-12-15T23:51:40.442Z,100203.19
2022-12-15T23:54:08.528Z,100200.53
2022-12-15T23:56:35.551Z,100199.22
2022-12-15T23:59:02.315Z,100202.38
